createdAt,value
2018-09-06T00:01:46.606Z,57.20
2018-09-06T00:04:14.693Z,59.73
2018-09-06T00:06:42.956Z,59.87
2018-09-06T00:09:11.116Z,57.80
2018-09-06T00:11:39.421Z,48.83
2018-09-06T00:14:07.793Z,48.40
2018-09-06T00:16:36.524Z,45.53
2018-09-06T00:19:04.961Z,46.03
2018-09-06T00:21:33.169Z,47.43
2018-09-06T00:24:01.300Z,45.70
2018-09-06T00:26:29.359Z,43.27
2018-09-06T00:28:57.313Z,44.67
2018-09-06T00:31:25.328Z,43.90
2018-09-06T00:33:53.318Z,43.77
2018-09-06T00:36:21.390Z,44.60
2018-09-06T00:38:49.450Z,45.17
2018-09-06T00:41:17.398Z,45.23
2018-09-06T00:43:45.614Z,48.43
2018-09-06T00:46:14.115Z,48.83
2018-09-06T00:48:42.462Z,48.27
2018-09-06T00:51:10.824Z,49.03
2018-09-06T00:53:39.182Z,43.50
2018-09-06T00:56:07.420Z,43.70
2018-09-06T00:58:36.145Z,44.70
2018-09-06T01:01:04.242Z,49.43
2018-09-06T01:03:32.485Z,46.50
2018-09-06T01:06:00.765Z,45.80
2018-09-06T01:08:28.795Z,49.33
2018-09-06T01:10:56.769Z,49.00
2018-09-06T01:13:24.743Z,46.67
2018-09-06T01:15:53.131Z,48.87
2018-09-06T01:18:21.193Z,47.50
2018-09-06T01:20:49.211Z,52.43
2018-09-06T01:23:17.282Z,47.70
2018-09-06T01:25:49.101Z,48.93
2018-09-06T01:28:18.230Z,51.13
2018-09-06T01:30:46.349Z,50.03
2018-09-06T01:33:14.573Z,50.60
2018-09-06T01:35:48.026Z,48.43
2018-09-06T01:38:16.648Z,50.60
2018-09-06T01:40:44.763Z,50.10
2018-09-06T01:43:13.059Z,50.60
2018-09-06T01:45:41.250Z,52.60
2018-09-06T01:48:09.652Z,48.70
2018-09-06T01:50:38.094Z,47.67
2018-09-06T01:53:06.261Z,50.60
2018-09-06T01:55:34.655Z,47.57
2018-09-06T01:58:02.830Z,44.43
2018-09-06T02:00:31.178Z,46.63
2018-09-06T02:02:59.391Z,46.83
2018-09-06T02:05:30.433Z,47.53
2018-09-06T02:07:58.664Z,50.17
2018-09-06T02:10:26.677Z,50.00
2018-09-06T02:12:54.754Z,50.20
2018-09-06T02:15:23.154Z,49.70
2018-09-06T02:17:51.121Z,49.10
2018-09-06T02:20:19.092Z,49.87
2018-09-06T02:22:47.153Z,44.53
2018-09-06T02:25:15.373Z,44.00
2018-09-06T02:27:43.515Z,39.00
2018-09-06T02:30:11.787Z,43.20
2018-09-06T02:32:40.060Z,45.17
2018-09-06T02:35:08.291Z,40.77
2018-09-06T02:37:36.501Z,41.77
2018-09-06T02:40:04.770Z,37.87
2018-09-06T02:42:32.997Z,37.50
2018-09-06T02:45:01.176Z,40.83
2018-09-06T02:47:29.194Z,43.53
2018-09-06T02:51:06.286Z,44.87
2018-09-06T02:53:34.615Z,43.53
2018-09-06T02:56:02.845Z,46.10
2018-09-06T02:58:31.341Z,47.43
2018-09-06T03:00:59.565Z,46.57
2018-09-06T03:03:38.671Z,46.10
2018-09-06T03:06:07.165Z,47.60
2018-09-06T03:08:35.423Z,48.27
2018-09-06T03:11:08.974Z,47.23
2018-09-06T03:13:37.378Z,46.80
2018-09-06T03:16:05.824Z,48.57
2018-09-06T03:18:33.961Z,47.97
2018-09-06T03:21:02.180Z,48.10
2018-09-06T03:23:30.411Z,47.00
2018-09-06T03:25:58.561Z,49.07
2018-09-06T03:28:26.515Z,48.37
2018-09-06T03:30:54.528Z,50.77
2018-09-06T03:33:22.553Z,49.90
2018-09-06T03:35:50.538Z,47.87
2018-09-06T03:38:18.514Z,47.10
2018-09-06T03:40:46.585Z,49.23
2018-09-06T03:43:14.768Z,47.70
2018-09-06T03:45:42.988Z,52.30
2018-09-06T03:48:11.214Z,46.60
2018-09-06T03:50:39.616Z,46.27
2018-09-06T03:53:07.993Z,48.17
2018-09-06T03:55:36.167Z,47.03
2018-09-06T03:58:04.505Z,50.03
2018-09-06T04:00:32.778Z,46.87
2018-09-06T04:03:00.892Z,44.50
2018-09-06T04:05:28.964Z,50.00
2018-09-06T04:07:56.928Z,43.17
2018-09-06T04:10:24.937Z,41.70
2018-09-06T04:12:52.957Z,48.53
2018-09-06T04:15:20.905Z,44.00
2018-09-06T04:17:48.892Z,63.17
2018-09-06T04:20:16.978Z,52.10
2018-09-06T04:22:48.105Z,39.80
2018-09-06T04:25:16.252Z,36.47
2018-09-06T04:27:44.426Z,36.17
2018-09-06T04:30:12.868Z,36.73
2018-09-06T04:32:41.052Z,43.87
2018-09-06T04:35:09.595Z,43.90
2018-09-06T04:37:37.980Z,41.60
2018-09-06T04:40:06.579Z,41.70
2018-09-06T04:42:35.017Z,43.37
2018-09-06T04:45:03.368Z,42.13
2018-09-06T04:47:31.658Z,43.83
2018-09-06T04:49:59.670Z,39.47
2018-09-06T04:52:27.667Z,37.70
2018-09-06T04:54:55.648Z,33.47
2018-09-06T04:57:23.820Z,30.30
2018-09-06T04:59:51.966Z,34.77
2018-09-06T05:02:19.993Z,32.50
2018-09-06T05:04:47.990Z,30.30
2018-09-06T05:07:16.570Z,30.63
2018-09-06T05:09:45.096Z,31.63
2018-09-06T05:12:13.262Z,31.50
2018-09-06T05:14:41.615Z,31.43
2018-09-06T05:17:09.972Z,29.07
2018-09-06T05:19:38.374Z,28.80
2018-09-06T05:22:07.062Z,26.80
2018-09-06T05:24:35.651Z,26.37
2018-09-06T05:27:10.651Z,37.47
2018-09-06T05:29:39.041Z,26.93
2018-09-06T05:32:07.518Z,29.10
2018-09-06T05:34:35.791Z,22.67
2018-09-06T05:37:03.941Z,27.27
2018-09-06T05:39:32.509Z,26.10
2018-09-06T05:42:01.056Z,23.10
2018-09-06T05:44:29.100Z,28.17
2018-09-06T05:46:57.183Z,25.60
2018-09-06T05:49:25.220Z,22.63
2018-09-06T05:51:53.208Z,24.37
2018-09-06T05:54:21.208Z,24.47
2018-09-06T05:56:49.245Z,30.00
2018-09-06T05:59:17.450Z,28.97
2018-09-06T06:01:45.557Z,27.20
2018-09-06T06:04:13.692Z,24.17
2018-09-06T06:06:41.990Z,25.43
2018-09-06T06:09:10.565Z,25.20
2018-09-06T06:11:38.814Z,24.57
2018-09-06T06:14:07.180Z,24.30
2018-09-06T06:16:35.640Z,23.63
2018-09-06T06:19:05.853Z,25.17
2018-09-06T06:21:34.636Z,28.20
2018-09-06T06:24:04.218Z,23.47
2018-09-06T06:26:32.459Z,28.07
2018-09-06T06:29:00.673Z,26.23
2018-09-06T06:31:28.658Z,26.53
2018-09-06T06:33:56.666Z,25.50
2018-09-06T06:36:24.660Z,25.60
2018-09-06T06:38:52.813Z,23.37
2018-09-06T06:41:20.855Z,23.90
2018-09-06T06:43:48.985Z,23.27
2018-09-06T06:46:17.077Z,25.60
2018-09-06T06:48:45.480Z,22.03
2018-09-06T06:51:13.626Z,22.63
2018-09-06T06:53:42.005Z,22.37
2018-09-06T06:56:10.612Z,23.13
2018-09-06T06:58:39.165Z,24.40
2018-09-06T07:01:07.504Z,21.23
2018-09-06T07:03:36.469Z,20.93
2018-09-06T07:06:04.659Z,20.90
2018-09-06T07:08:33.089Z,21.13
2018-09-06T07:11:01.414Z,23.60
2018-09-06T07:13:29.609Z,24.07
2018-09-06T07:15:57.689Z,21.27
2018-09-06T07:18:25.845Z,20.53
2018-09-06T07:20:53.954Z,19.07
2018-09-06T07:23:21.992Z,20.87
2018-09-06T07:25:49.960Z,19.83
2018-09-06T07:28:19.117Z,19.60
2018-09-06T07:30:47.410Z,20.07
2018-09-06T07:33:15.681Z,20.20
2018-09-06T07:35:43.970Z,21.30
2018-09-06T07:38:12.565Z,20.80
2018-09-06T07:40:47.174Z,19.93
2018-09-06T07:43:15.356Z,20.70
2018-09-06T07:45:44.582Z,20.40
2018-09-06T07:48:13.258Z,21.30
2018-09-06T07:50:41.656Z,20.63
2018-09-06T07:53:10.005Z,19.40
2018-09-06T07:55:38.961Z,19.83
2018-09-06T07:58:07.432Z,19.90
2018-09-06T08:00:38.393Z,20.00
2018-09-06T08:03:07.059Z,20.90
2018-09-06T08:05:35.547Z,23.10
2018-09-06T08:08:03.971Z,20.83
2018-09-06T08:10:32.495Z,19.63
2018-09-06T08:13:01.058Z,18.77
2018-09-06T08:15:29.162Z,20.77
2018-09-06T08:17:57.379Z,19.67
2018-09-06T08:20:25.632Z,20.77
2018-09-06T08:22:53.859Z,22.20
2018-09-06T08:25:21.830Z,19.50
2018-09-06T08:27:49.907Z,18.40
2018-09-06T08:30:18.060Z,20.27
2018-09-06T08:32:46.329Z,19.07
2018-09-06T08:35:14.603Z,19.33
2018-09-06T08:37:42.890Z,17.10
2018-09-06T08:40:11.171Z,18.10
2018-09-06T08:42:39.669Z,18.63
2018-09-06T08:45:08.162Z,18.70
2018-09-06T08:47:36.760Z,17.73
2018-09-06T08:50:05.114Z,17.03
2018-09-06T08:52:34.083Z,17.60
2018-09-06T08:55:02.535Z,17.30
2018-09-06T08:57:30.945Z,16.80
2018-09-06T08:59:59.208Z,17.77
2018-09-06T09:02:28.054Z,17.70
2018-09-06T09:04:56.021Z,16.73
2018-09-06T09:07:24.103Z,15.27
2018-09-06T09:09:52.250Z,15.70
2018-09-06T09:12:20.267Z,15.93
2018-09-06T09:14:48.649Z,16.73
2018-09-06T09:17:17.476Z,16.07
2018-09-06T09:19:45.680Z,15.17
2018-09-06T09:22:14.112Z,14.53
2018-09-06T09:24:42.678Z,16.43
2018-09-06T09:27:10.857Z,15.07
2018-09-06T09:29:39.669Z,14.90
2018-09-06T09:32:08.297Z,14.80
2018-09-06T09:34:36.908Z,17.23
2018-09-06T09:37:05.418Z,16.07
2018-09-06T09:39:33.804Z,14.87
2018-09-06T09:42:02.060Z,15.70
2018-09-06T09:44:30.109Z,18.10
2018-09-06T09:49:25.483Z,17.07
2018-09-06T09:51:53.501Z,16.00
2018-09-06T09:54:21.542Z,14.93
2018-09-06T09:56:49.586Z,16.07
2018-09-06T09:59:17.723Z,15.37
2018-09-06T10:01:52.024Z,16.00
2018-09-06T10:04:25.535Z,15.23
2018-09-06T10:06:58.864Z,17.07
2018-09-06T10:09:27.795Z,13.97
2018-09-06T10:11:55.856Z,16.50
2018-09-06T10:14:23.914Z,19.50
2018-09-06T10:16:52.070Z,16.10
2018-09-06T10:19:20.091Z,15.50
2018-09-06T10:21:48.093Z,15.40
2018-09-06T10:24:16.435Z,15.77
2018-09-06T10:26:45.026Z,18.07
2018-09-06T10:29:13.326Z,13.63
2018-09-06T10:31:41.603Z,16.47
2018-09-06T10:34:10.153Z,15.00
2018-09-06T10:36:38.623Z,14.87
2018-09-06T10:39:08.069Z,13.50
2018-09-06T10:41:36.870Z,15.13
2018-09-06T10:44:05.393Z,14.33
2018-09-06T10:46:33.908Z,14.80
2018-09-06T10:49:02.248Z,13.13
2018-09-06T10:51:30.557Z,14.33
2018-09-06T10:53:58.757Z,16.23
2018-09-06T10:56:26.785Z,13.57
2018-09-06T10:58:54.833Z,14.07
2018-09-06T11:01:23.980Z,16.47
2018-09-06T11:03:54.375Z,14.70
2018-09-06T11:06:22.685Z,15.50
2018-09-06T11:08:50.684Z,14.10
2018-09-06T11:11:18.761Z,14.80
2018-09-06T11:13:46.960Z,14.20
2018-09-06T11:16:15.525Z,14.20
2018-09-06T11:18:43.624Z,13.47
2018-09-06T11:21:12.011Z,14.27
2018-09-06T11:23:40.190Z,14.80
2018-09-06T11:26:08.668Z,13.50
2018-09-06T11:28:36.939Z,14.40
2018-09-06T11:31:05.852Z,14.90
2018-09-06T11:33:34.309Z,15.27
2018-09-06T11:36:02.598Z,13.10
2018-09-06T11:38:30.964Z,13.27
2018-09-06T11:40:59.000Z,12.73
2018-09-06T11:43:27.012Z,14.17
2018-09-06T11:45:55.396Z,12.87
2018-09-06T11:48:23.552Z,16.10
2018-09-06T11:50:52.509Z,13.63
2018-09-06T11:53:20.524Z,14.00
2018-09-06T11:55:49.021Z,16.70
2018-09-06T11:58:17.329Z,13.30
2018-09-06T12:00:45.801Z,12.20
2018-09-06T12:03:14.840Z,13.30
2018-09-06T12:05:43.324Z,14.40
2018-09-06T12:08:11.685Z,13.27
2018-09-06T12:10:40.054Z,12.37
2018-09-06T12:13:08.632Z,12.70
2018-09-06T12:15:37.057Z,11.20
2018-09-06T12:18:06.028Z,14.20
2018-09-06T12:20:34.988Z,12.27
2018-09-06T12:23:03.095Z,13.70
2018-09-06T12:25:31.405Z,13.47
2018-09-06T12:27:59.717Z,12.77
2018-09-06T12:30:27.964Z,13.50
2018-09-06T12:32:56.328Z,12.90
2018-09-06T12:35:24.845Z,12.43
2018-09-06T12:37:52.854Z,12.90
2018-09-06T12:40:20.988Z,11.70
2018-09-06T12:42:49.934Z,11.80
2018-09-06T12:45:18.018Z,11.47
2018-09-06T12:47:46.236Z,11.97
2018-09-06T12:50:14.599Z,11.27
2018-09-06T12:52:42.938Z,11.90
2018-09-06T12:55:11.697Z,12.00
2018-09-06T12:57:40.375Z,11.30
2018-09-06T13:00:08.677Z,10.93
2018-09-06T13:02:37.886Z,11.40
2018-09-06T13:05:06.603Z,11.13
2018-09-06T13:07:35.139Z,11.00
2018-09-06T13:10:03.647Z,12.07
2018-09-06T13:12:31.976Z,11.43
2018-09-06T13:15:00.173Z,10.93
2018-09-06T13:17:28.462Z,10.67
2018-09-06T13:19:56.609Z,11.03
2018-09-06T13:22:24.675Z,10.50
2018-09-06T13:24:52.831Z,10.43
2018-09-06T13:27:21.003Z,11.67
2018-09-06T13:29:49.081Z,11.03
2018-09-06T13:32:17.543Z,12.17
2018-09-06T13:34:45.549Z,12.27
2018-09-06T13:37:14.005Z,11.20
2018-09-06T13:39:42.660Z,12.83
2018-09-06T13:42:10.889Z,11.30
2018-09-06T13:44:39.487Z,10.70
2018-09-06T13:47:08.207Z,11.93
2018-09-06T13:49:37.420Z,9.90
2018-09-06T13:52:06.905Z,12.73
2018-09-06T13:54:35.706Z,11.60
2018-09-06T13:57:03.930Z,12.40
2018-09-06T13:59:32.265Z,12.03
2018-09-06T14:02:00.788Z,11.80
2018-09-06T14:04:28.885Z,12.40
2018-09-06T14:06:57.087Z,10.10
2018-09-06T14:09:25.081Z,12.60
2018-09-06T14:11:53.081Z,11.67
2018-09-06T14:14:21.149Z,12.03
2018-09-06T14:16:49.363Z,11.00
2018-09-06T14:19:17.464Z,10.87
2018-09-06T14:21:45.661Z,11.10
2018-09-06T14:24:14.617Z,12.83
2018-09-06T14:26:42.807Z,11.23
2018-09-06T14:29:11.151Z,11.83
2018-09-06T14:31:39.479Z,11.57
2018-09-06T14:34:08.181Z,11.90
2018-09-06T14:36:36.750Z,12.07
2018-09-06T14:39:06.256Z,13.10
2018-09-06T14:41:34.925Z,13.43
2018-09-06T14:44:03.290Z,12.27
2018-09-06T14:46:32.037Z,11.40
2018-09-06T14:49:00.392Z,11.57
2018-09-06T14:51:28.624Z,12.70
2018-09-06T14:53:57.638Z,13.83
2018-09-06T14:56:25.806Z,12.53
2018-09-06T14:58:53.943Z,11.07
2018-09-06T15:01:22.208Z,11.40
2018-09-06T15:03:51.609Z,13.20
2018-09-06T15:06:19.589Z,12.73
2018-09-06T15:08:48.622Z,11.63
2018-09-06T15:11:17.175Z,12.50
2018-09-06T15:13:45.909Z,11.50
2018-09-06T15:16:15.640Z,13.23
2018-09-06T15:18:44.419Z,11.70
2018-09-06T15:21:13.110Z,12.23
2018-09-06T15:23:42.732Z,11.70
2018-09-06T15:26:11.452Z,12.13
2018-09-06T15:28:40.166Z,12.33
2018-09-06T15:31:09.449Z,12.27
2018-09-06T15:33:38.429Z,12.77
2018-09-06T15:36:07.350Z,11.60
2018-09-06T15:38:36.488Z,12.43
2018-09-06T15:41:05.662Z,13.57
2018-09-06T15:43:35.113Z,13.50
2018-09-06T15:46:04.183Z,12.43
2018-09-06T15:48:32.633Z,12.07
2018-09-06T15:51:01.432Z,11.60
2018-09-06T15:53:30.528Z,11.77
2018-09-06T15:55:58.698Z,13.50
2018-09-06T15:58:26.690Z,12.50
2018-09-06T16:00:55.600Z,12.10
2018-09-06T16:03:24.737Z,12.13
2018-09-06T16:05:53.134Z,12.50
2018-09-06T16:08:21.410Z,11.30
2018-09-06T16:10:50.224Z,11.53
2018-09-06T16:13:18.408Z,11.90
2018-09-06T16:15:46.813Z,12.87
2018-09-06T16:18:15.495Z,13.37
2018-09-06T16:20:43.857Z,11.47
2018-09-06T16:23:12.421Z,12.50
2018-09-06T16:25:41.692Z,11.20
2018-09-06T16:28:10.556Z,11.73
2018-09-06T16:30:39.293Z,13.60
2018-09-06T16:33:07.750Z,12.20
2018-09-06T16:35:36.816Z,12.20
2018-09-06T16:38:06.209Z,13.43
2018-09-06T16:40:34.584Z,12.13
2018-09-06T16:43:03.658Z,12.67
2018-09-06T16:45:32.113Z,13.20
2018-09-06T16:48:00.546Z,11.67
2018-09-06T16:50:28.897Z,13.37
2018-09-06T16:52:57.143Z,13.73
2018-09-06T16:55:25.189Z,11.77
2018-09-06T16:57:57.613Z,12.47
2018-09-06T17:00:25.742Z,12.60
2018-09-06T17:02:56.703Z,12.73
2018-09-06T17:05:24.792Z,14.23
2018-09-06T17:07:53.310Z,13.73
2018-09-06T17:10:21.867Z,12.03
2018-09-06T17:12:50.085Z,14.20
2018-09-06T17:15:18.288Z,11.87
2018-09-06T17:17:46.397Z,13.30
2018-09-06T17:20:14.821Z,13.07
2018-09-06T17:22:43.184Z,10.93
2018-09-06T17:25:11.414Z,12.03
2018-09-06T17:27:40.460Z,11.37
2018-09-06T17:30:09.422Z,12.90
2018-09-06T17:32:37.898Z,12.70
2018-09-06T17:35:06.730Z,12.47
2018-09-06T17:37:35.182Z,12.20
2018-09-06T17:40:04.365Z,12.93
2018-09-06T17:42:33.370Z,12.27
2018-09-06T17:45:01.649Z,9.80
2018-09-06T17:47:29.994Z,11.53
2018-09-06T17:49:58.033Z,12.30
2018-09-06T17:52:26.309Z,12.53
2018-09-06T17:54:54.621Z,12.27
2018-09-06T17:57:22.780Z,11.10
2018-09-06T17:59:53.333Z,11.97
2018-09-06T18:02:22.533Z,11.73
2018-09-06T18:04:50.608Z,11.80
2018-09-06T18:07:18.910Z,11.43
2018-09-06T18:09:47.739Z,10.50
2018-09-06T18:12:15.941Z,12.00
2018-09-06T18:14:44.248Z,10.90
2018-09-06T18:17:13.005Z,12.70
2018-09-06T18:19:42.277Z,12.03
2018-09-06T18:22:11.228Z,12.13
2018-09-06T18:24:39.914Z,13.27
2018-09-06T18:27:08.242Z,11.70
2018-09-06T18:29:37.077Z,13.17
2018-09-06T18:32:05.497Z,12.00
2018-09-06T18:34:33.746Z,12.20
2018-09-06T18:37:02.498Z,14.30
2018-09-06T18:39:30.705Z,11.90
2018-09-06T18:41:58.806Z,12.40
2018-09-06T18:44:27.633Z,14.00
2018-09-06T18:46:55.748Z,12.37
2018-09-06T18:49:23.801Z,13.43
2018-09-06T18:51:51.926Z,13.00
2018-09-06T18:54:20.143Z,14.43
2018-09-06T18:56:48.362Z,13.30
2018-09-06T18:59:16.423Z,12.40
2018-09-06T19:01:44.572Z,13.60
2018-09-06T19:04:12.932Z,13.10
2018-09-06T19:06:41.897Z,11.87
2018-09-06T19:09:11.689Z,12.40
2018-09-06T19:11:40.235Z,13.13
2018-09-06T19:14:14.565Z,12.43
2018-09-06T19:16:48.829Z,13.70
2018-09-06T19:19:24.930Z,12.33
2018-09-06T19:21:54.598Z,12.57
2018-09-06T19:24:29.834Z,10.63
2018-09-06T19:26:57.894Z,11.67
2018-09-06T19:29:26.023Z,9.83
2018-09-06T19:31:54.106Z,10.30
2018-09-06T19:34:22.523Z,9.83
2018-09-06T19:36:51.004Z,10.40
2018-09-06T19:39:19.139Z,10.43
2018-09-06T19:41:48.979Z,8.70
2018-09-06T19:44:17.626Z,10.90
2018-09-06T19:46:46.147Z,10.47
2018-09-06T19:49:14.414Z,11.60
2018-09-06T19:51:43.442Z,12.23
2018-09-06T19:54:12.057Z,12.37
2018-09-06T19:56:40.982Z,11.00
2018-09-06T19:59:10.936Z,13.93
2018-09-06T20:01:40.482Z,12.33
2018-09-06T20:04:10.583Z,14.30
2018-09-06T20:06:44.210Z,11.97
2018-09-06T20:09:16.143Z,13.70
2018-09-06T20:11:44.615Z,11.27
2018-09-06T20:14:13.148Z,13.20
2018-09-06T20:16:41.957Z,11.33
2018-09-06T20:19:10.690Z,12.40
2018-09-06T20:21:39.659Z,10.83
2018-09-06T20:24:08.936Z,11.60
2018-09-06T20:26:38.061Z,12.20
2018-09-06T20:29:09.029Z,14.03
2018-09-06T20:31:41.282Z,12.13
2018-09-06T20:34:10.718Z,11.43
2018-09-06T20:36:39.106Z,9.63
2018-09-06T20:39:09.391Z,10.00
2018-09-06T20:41:38.186Z,9.40
2018-09-06T20:44:07.136Z,9.87
2018-09-06T20:46:35.628Z,10.10
2018-09-06T20:49:05.162Z,10.50
2018-09-06T20:51:38.146Z,9.33
2018-09-06T20:54:06.868Z,9.87
2018-09-06T20:56:35.829Z,8.73
2018-09-06T20:59:06.877Z,8.67
2018-09-06T21:01:39.713Z,7.70
2018-09-06T21:04:09.438Z,6.77
2018-09-06T21:06:38.355Z,6.40
2018-09-06T21:09:08.052Z,6.53
2018-09-06T21:11:36.725Z,6.17
2018-09-06T21:14:05.631Z,5.20
2018-09-06T21:16:33.899Z,6.07
2018-09-06T21:19:02.276Z,6.40
2018-09-06T21:21:30.361Z,5.00
2018-09-06T21:23:58.668Z,5.93
2018-09-06T21:26:26.895Z,4.33
2018-09-06T21:28:54.977Z,5.00
2018-09-06T21:31:23.106Z,4.83
2018-09-06T21:33:51.073Z,4.83
2018-09-06T21:36:19.174Z,4.53
2018-09-06T21:38:47.236Z,5.47
2018-09-06T21:41:15.320Z,4.77
2018-09-06T21:43:43.557Z,5.03
2018-09-06T21:46:11.832Z,5.00
2018-09-06T21:48:40.276Z,4.27
2018-09-06T21:51:08.755Z,4.20
2018-09-06T21:53:37.163Z,5.70
2018-09-06T21:56:05.174Z,4.37
2018-09-06T21:58:33.413Z,5.50
2018-09-06T22:01:01.665Z,5.50
2018-09-06T22:03:35.255Z,5.80
2018-09-06T22:06:03.374Z,5.10
2018-09-06T22:08:31.632Z,5.50
2018-09-06T22:10:59.699Z,5.73
2018-09-06T22:13:27.644Z,6.40
2018-09-06T22:15:55.635Z,5.57
2018-09-06T22:18:23.600Z,6.17
2018-09-06T22:20:51.682Z,5.87
2018-09-06T22:23:19.741Z,6.17
2018-09-06T22:25:47.815Z,6.70
2018-09-06T22:28:16.450Z,7.73
2018-09-06T22:30:45.793Z,6.67
2018-09-06T22:33:15.241Z,7.33
2018-09-06T22:35:43.565Z,7.03
2018-09-06T22:38:11.707Z,5.77
2018-09-06T22:40:40.138Z,6.60
2018-09-06T22:43:08.511Z,7.17
2018-09-06T22:45:36.797Z,7.43
2018-09-06T22:48:05.074Z,7.30
2018-09-06T22:50:34.695Z,6.20
2018-09-06T22:53:02.749Z,6.80
2018-09-06T22:55:32.265Z,6.53
2018-09-06T22:58:01.082Z,7.73
2018-09-06T23:00:30.638Z,8.67
2018-09-06T23:03:03.965Z,9.23
2018-09-06T23:05:32.385Z,9.87
2018-09-06T23:08:00.724Z,10.70
2018-09-06T23:10:29.021Z,8.57
2018-09-06T23:12:57.110Z,7.60
2018-09-06T23:15:25.089Z,7.60
2018-09-06T23:17:53.084Z,8.00
2018-09-06T23:20:21.224Z,8.87
2018-09-06T23:22:49.248Z,7.57
2018-09-06T23:25:17.276Z,11.73
2018-09-06T23:27:45.537Z,11.03
2018-09-06T23:30:13.877Z,8.30
2018-09-06T23:32:42.027Z,7.57
2018-09-06T23:35:10.291Z,9.57
2018-09-06T23:37:38.527Z,11.13
2018-09-06T23:40:06.855Z,8.57
2018-09-06T23:42:35.499Z,6.60
2018-09-06T23:45:04.129Z,7.37
2018-09-06T23:47:32.901Z,5.93
2018-09-06T23:50:01.003Z,6.13
2018-09-06T23:52:28.972Z,5.23
2018-09-06T23:54:56.932Z,5.63
2018-09-06T23:57:25.031Z,5.23
2018-09-06T23:59:52.984Z,4.27
